KISQ

Schoolcraft County Airport

Manistique, Michigan, USA
METAR KISQ 201725Z AUTO 34014KT 10SM OVC033 02/M06 A2982 RMK AO2
Observed Flight Rules
Oct-20 @ 17:25 UTC (17 minutes ago) Visual Flight Rules
Wind Visibility Clouds
340° at 14 knots 10 miles
  • Overcast at 3,300' AGL
Temperatures Readings
Current 2°C / 36°F
Dewpoint -6°C / 21°F
Humidity 56%
Altimeter 29.82" Hg
Pressure 1010 hPa
Elevation 209
METAR KISQ 201725Z AUTO 34014KT 10SM OVC033 02/M06 A2982 RMK AO2
Observed Flight Rules
Oct-20 @ 17:25 UTC
(17 minutes ago)
VFR
Wind Visibility
340° at 14 knots 10 miles
Clouds
  • Overcast at 3,300' AGL
Temperature Dewpoint
2°C / 36°F -6°C / 21°F
Humidity Altimeter Pressure
56% 29.82" Hg 1010 hPa